createdAt,value
2024-01-17T00:01:43.100Z,96558.50
2024-01-17T00:04:11.390Z,96590.28
2024-01-17T00:06:39.315Z,96575.84
2024-01-17T00:09:09.442Z,96585.88
2024-01-17T00:11:37.712Z,96580.91
2024-01-17T00:14:05.761Z,96583.31
2024-01-17T00:16:35.167Z,96570.97
2024-01-17T00:19:05.215Z,96572.97
2024-01-17T00:21:42.835Z,96570.19
2024-01-17T00:24:14.228Z,96571.13
2024-01-17T00:26:43.800Z,96561.47
2024-01-17T00:29:11.708Z,96573.44
2024-01-17T00:31:39.742Z,96551.94
2024-01-17T00:34:10.180Z,96571.94
2024-01-17T00:36:38.326Z,96595.38
2024-01-17T00:39:05.096Z,96570.72
2024-01-17T00:41:35.667Z,96598.59
2024-01-17T00:44:06.432Z,96596.19
2024-01-17T00:46:43.309Z,96558.47
2024-01-17T00:49:11.610Z,96592.88
2024-01-17T00:51:38.527Z,96589.03
2024-01-17T00:54:11.267Z,96564.81
2024-01-17T00:56:44.545Z,96594.56
2024-01-17T00:59:21.042Z,96586.44
2024-01-17T01:01:47.854Z,96592.56
2024-01-17T01:04:17.061Z,96552.53
2024-01-17T01:06:46.249Z,96588.56
2024-01-17T01:09:15.466Z,96583.25
2024-01-17T01:11:45.454Z,96567.94
2024-01-17T01:14:13.984Z,96564.72
2024-01-17T01:16:45.875Z,96575.78
2024-01-17T01:19:14.587Z,96570.34
2024-01-17T01:21:44.383Z,96579.41
2024-01-17T01:24:14.877Z,96588.94
2024-01-17T01:26:45.563Z,96584.78
2024-01-17T01:29:20.903Z,96541.28
2024-01-17T01:31:47.776Z,96574.34
2024-01-17T01:34:17.603Z,96570.84
2024-01-17T01:36:46.750Z,96566.16
2024-01-17T01:39:18.932Z,96560.38
2024-01-17T01:41:45.707Z,96564.72
2024-01-17T01:44:21.358Z,96554.75
2024-01-17T01:46:49.373Z,96563.94
2024-01-17T01:49:21.085Z,96557.72
2024-01-17T01:51:50.050Z,96533.41
2024-01-17T01:54:21.279Z,96549.88
2024-01-17T01:56:49.040Z,96481.44
2024-01-17T01:59:21.115Z,96542.97
2024-01-17T02:01:49.050Z,96530.59
2024-01-17T02:04:17.873Z,96495.94
2024-01-17T02:06:47.145Z,96538.69
2024-01-17T02:09:24.003Z,96537.03
2024-01-17T02:11:51.986Z,96513.00
2024-01-17T02:14:23.138Z,96532.28
2024-01-17T02:16:49.903Z,96528.41
2024-01-17T02:19:21.343Z,96532.19
2024-01-17T02:21:48.030Z,96531.59
2024-01-17T02:24:24.340Z,96535.06
2024-01-17T02:26:51.573Z,96516.91
2024-01-17T02:29:23.560Z,96516.78
2024-01-17T02:31:51.100Z,96527.59
2024-01-17T02:34:20.716Z,96521.72
2024-01-17T02:36:47.552Z,96506.38
2024-01-17T02:39:22.453Z,96505.19
2024-01-17T02:41:49.251Z,96517.94
2024-01-17T02:44:19.627Z,96506.81
2024-01-17T02:46:46.325Z,96457.47
2024-01-17T02:49:21.259Z,96499.38
2024-01-17T02:51:48.191Z,96464.84
2024-01-17T02:54:15.777Z,96437.84
2024-01-17T02:56:46.121Z,96441.16
2024-01-17T02:59:23.330Z,96478.03
2024-01-17T03:01:50.118Z,96455.41
2024-01-17T03:04:18.410Z,96473.06
2024-01-17T03:06:48.054Z,96468.53
2024-01-17T03:09:18.730Z,96468.88
2024-01-17T03:11:46.803Z,96456.44
2024-01-17T03:14:14.842Z,96450.84
2024-01-17T03:16:42.924Z,96464.25
2024-01-17T03:19:13.397Z,96459.06
2024-01-17T03:21:51.826Z,96453.97
2024-01-17T03:24:22.217Z,96458.88
2024-01-17T03:26:49.149Z,96448.88
2024-01-17T03:29:20.006Z,96467.78
2024-01-17T03:31:48.047Z,96460.81
2024-01-17T03:34:15.292Z,96467.03
2024-01-17T03:36:43.115Z,96468.72
2024-01-17T03:39:13.662Z,96468.22
2024-01-17T03:41:42.068Z,96474.59
2024-01-17T03:44:08.844Z,96463.78
2024-01-17T03:46:39.200Z,96468.00
2024-01-17T03:49:08.560Z,96474.50
2024-01-17T03:51:40.259Z,96447.31
2024-01-17T03:54:09.822Z,96476.28
2024-01-17T03:56:40.174Z,96451.16
2024-01-17T03:59:10.244Z,96487.59
2024-01-17T04:01:45.233Z,96480.44
2024-01-17T04:04:15.078Z,96434.25
2024-01-17T04:06:43.369Z,96463.91
2024-01-17T04:09:12.151Z,96467.13
2024-01-17T04:11:38.900Z,96463.34
2024-01-17T04:14:07.502Z,96460.53
2024-01-17T04:16:37.970Z,96424.06
2024-01-17T04:19:07.947Z,96466.09
2024-01-17T04:21:35.853Z,96462.59
2024-01-17T04:24:02.616Z,96459.69
2024-01-17T04:26:31.079Z,96419.31
2024-01-17T04:28:57.841Z,96434.06
2024-01-17T04:31:39.925Z,96444.25
2024-01-17T04:34:09.098Z,96439.41
2024-01-17T04:36:39.685Z,96426.75
2024-01-17T04:39:08.948Z,96422.63
2024-01-17T04:41:41.956Z,96430.94
2024-01-17T04:44:14.881Z,96417.19
2024-01-17T04:46:45.801Z,96416.41
2024-01-17T04:49:17.104Z,96421.13
2024-01-17T04:51:48.044Z,96416.47
2024-01-17T04:54:18.424Z,96413.41
2024-01-17T04:56:46.207Z,96391.22
2024-01-17T04:59:12.928Z,96377.06
2024-01-17T05:01:48.754Z,96412.94
2024-01-17T05:04:18.114Z,96404.13
2024-01-17T05:06:47.138Z,96401.78
2024-01-17T05:09:21.347Z,96381.72
2024-01-17T05:11:49.683Z,96400.22
2024-01-17T05:14:17.757Z,96397.28
2024-01-17T05:16:46.798Z,96376.31
2024-01-17T05:19:19.124Z,96369.72
2024-01-17T05:21:47.065Z,96369.28
2024-01-17T05:24:20.609Z,96372.16
2024-01-17T05:26:49.241Z,96366.66
2024-01-17T05:29:19.569Z,96361.88
2024-01-17T05:31:46.589Z,96323.34
2024-01-17T05:34:15.477Z,96374.59
2024-01-17T05:36:48.414Z,96339.97
2024-01-17T05:39:15.154Z,96350.25
2024-01-17T05:41:43.429Z,96358.84
2024-01-17T05:44:15.741Z,96364.56
2024-01-17T05:46:46.085Z,96362.44
2024-01-17T05:49:16.018Z,96330.50
2024-01-17T05:51:47.757Z,96298.16
2024-01-17T05:54:16.091Z,96329.53
2024-01-17T05:56:44.382Z,96327.22
2024-01-17T05:59:16.701Z,96325.28
2024-01-17T06:01:46.258Z,96320.34
2024-01-17T06:04:23.558Z,96286.56
2024-01-17T06:06:50.433Z,96332.03
2024-01-17T06:09:21.332Z,96307.09
2024-01-17T06:11:48.237Z,96313.97
2024-01-17T06:14:16.674Z,96320.34
2024-01-17T06:16:46.047Z,96313.72
2024-01-17T06:19:16.435Z,96309.22
2024-01-17T06:21:46.746Z,96306.81
2024-01-17T06:24:13.513Z,96305.06
2024-01-17T06:26:42.886Z,96285.31
2024-01-17T06:29:12.010Z,96308.50
2024-01-17T06:31:42.150Z,96273.00
2024-01-17T06:34:10.342Z,96319.25
2024-01-17T06:36:44.903Z,96306.41
2024-01-17T06:39:14.970Z,96307.91
2024-01-17T06:41:45.337Z,96310.31
2024-01-17T06:44:13.288Z,96307.88
2024-01-17T06:46:43.608Z,96286.88
2024-01-17T06:49:14.143Z,96308.53
2024-01-17T06:51:46.375Z,96303.75
2024-01-17T06:54:15.044Z,96297.41
2024-01-17T06:56:43.145Z,96262.31
2024-01-17T06:59:19.175Z,96281.41
2024-01-17T07:01:48.518Z,96295.72
2024-01-17T07:04:16.419Z,96286.00
2024-01-17T07:06:52.538Z,96277.78
2024-01-17T07:09:20.608Z,96271.91
2024-01-17T07:11:52.009Z,96243.19
2024-01-17T07:14:22.328Z,96267.50
2024-01-17T07:16:50.074Z,96267.63
2024-01-17T07:19:18.435Z,96260.66
2024-01-17T07:21:46.838Z,96224.94
2024-01-17T07:24:17.187Z,96252.13
2024-01-17T07:26:46.569Z,96263.66
2024-01-17T07:29:16.884Z,96238.91
2024-01-17T07:31:45.744Z,96248.31
2024-01-17T07:34:13.078Z,96248.47
2024-01-17T07:36:43.201Z,96230.03
2024-01-17T07:39:12.583Z,96243.44
2024-01-17T07:41:40.515Z,96231.53
2024-01-17T07:44:17.560Z,96231.31
2024-01-17T07:46:47.904Z,96174.56
2024-01-17T07:49:15.914Z,96210.22
2024-01-17T07:51:46.407Z,96194.56
2024-01-17T07:54:17.084Z,96206.50
2024-01-17T07:56:45.257Z,96200.50
2024-01-17T07:59:16.518Z,96196.56
2024-01-17T08:01:45.482Z,96189.25
2024-01-17T08:04:13.625Z,96182.72
2024-01-17T08:06:40.987Z,96160.50
2024-01-17T08:09:22.893Z,96188.59
2024-01-17T08:11:52.532Z,96177.44
2024-01-17T08:14:28.796Z,96161.47
2024-01-17T08:16:55.593Z,96159.34
2024-01-17T08:19:31.629Z,96145.75
2024-01-17T08:21:58.648Z,96151.00
2024-01-17T08:24:28.615Z,96124.13
2024-01-17T08:26:55.442Z,96154.34
2024-01-17T08:29:33.287Z,96148.72
2024-01-17T08:31:59.988Z,96140.91
2024-01-17T08:34:28.386Z,96108.16
2024-01-17T08:36:55.931Z,96135.47
2024-01-17T08:39:31.688Z,96120.00
2024-01-17T08:41:58.520Z,96136.97
2024-01-17T08:44:28.987Z,96124.81
2024-01-17T08:46:56.180Z,96130.63
2024-01-17T08:49:22.946Z,96118.44
2024-01-17T08:51:49.748Z,96112.63
2024-01-17T08:54:19.634Z,96109.97
2024-01-17T08:56:48.019Z,96118.72
2024-01-17T08:59:15.986Z,96100.28
2024-01-17T09:01:48.406Z,96101.81
2024-01-17T09:04:16.705Z,96095.16
2024-01-17T09:06:47.824Z,96106.03
2024-01-17T09:09:16.339Z,96090.59
2024-01-17T09:11:44.821Z,96055.81
2024-01-17T09:14:15.969Z,96086.75
2024-01-17T09:16:44.359Z,96091.09
2024-01-17T09:19:12.777Z,96084.09
2024-01-17T09:21:48.557Z,96064.88
2024-01-17T09:24:16.707Z,96026.66
2024-01-17T09:26:46.953Z,96060.31
2024-01-17T09:29:24.499Z,96060.78
2024-01-17T09:31:52.002Z,96051.22
2024-01-17T09:34:20.358Z,96051.22
2024-01-17T09:36:47.686Z,96052.03
2024-01-17T09:39:16.279Z,96019.38
2024-01-17T09:41:46.558Z,96042.63
2024-01-17T09:44:16.920Z,96030.09
2024-01-17T09:46:46.975Z,96020.25
2024-01-17T09:49:23.992Z,95953.53
2024-01-17T09:51:52.122Z,96009.91
2024-01-17T10:19:16.380Z,95941.25
2024-01-17T10:21:45.072Z,95932.03
2024-01-17T10:24:15.437Z,95917.28
2024-01-17T10:26:49.196Z,95922.84
2024-01-17T10:29:26.128Z,95916.78
2024-01-17T10:32:09.238Z,95904.59
2024-01-17T10:34:46.617Z,95868.16
2024-01-17T10:37:15.799Z,95887.63
2024-01-17T10:39:44.884Z,95855.25
2024-01-17T10:42:22.229Z,95886.19
2024-01-17T10:44:50.309Z,95884.00
2024-01-17T10:47:18.690Z,95877.78
2024-01-17T10:49:46.672Z,95875.81
2024-01-17T10:52:17.947Z,95868.63
2024-01-17T10:54:52.377Z,95852.25
2024-01-17T10:57:23.317Z,95862.72
2024-01-17T10:59:56.734Z,95853.13
2024-01-17T11:02:24.350Z,95835.69
2024-01-17T11:05:03.205Z,95830.19
2024-01-17T11:07:32.144Z,95832.22
2024-01-17T11:10:04.268Z,95826.78
2024-01-17T11:12:37.248Z,95827.38
2024-01-17T11:15:08.206Z,95776.41
2024-01-17T11:17:37.578Z,95813.56
2024-01-17T11:20:09.772Z,95807.63
2024-01-17T11:22:37.857Z,95796.94
2024-01-17T11:25:25.992Z,95804.56
2024-01-17T11:28:26.757Z,95797.50
2024-01-17T11:31:26.247Z,95793.91
2024-01-17T11:33:53.457Z,95790.25
2024-01-17T11:36:46.002Z,95781.22
2024-01-17T11:39:18.754Z,95777.84
2024-01-17T11:41:47.351Z,95766.66
2024-01-17T11:44:15.989Z,95765.66
2024-01-17T11:46:42.835Z,95744.69
2024-01-17T11:49:10.878Z,95742.72
2024-01-17T11:51:38.869Z,95734.72
2024-01-17T11:54:11.043Z,95734.66
2024-01-17T11:56:37.754Z,95692.78
2024-01-17T11:59:14.839Z,95729.94
2024-01-17T12:01:43.356Z,95719.72
2024-01-17T12:04:17.920Z,95718.94
2024-01-17T12:06:53.437Z,95719.28
2024-01-17T12:09:24.562Z,95709.59
2024-01-17T12:11:53.933Z,95705.25
2024-01-17T12:14:20.838Z,95701.59
2024-01-17T12:16:48.462Z,95698.44
2024-01-17T12:19:16.680Z,95692.09
2024-01-17T12:21:44.836Z,95680.50
2024-01-17T12:24:13.423Z,95634.13
2024-01-17T12:26:40.586Z,95674.09
2024-01-17T12:29:08.206Z,95663.91
2024-01-17T12:31:35.204Z,95650.25
2024-01-17T12:34:02.595Z,95628.00
2024-01-17T12:36:32.212Z,95658.84
2024-01-17T12:39:04.107Z,95661.75
2024-01-17T12:41:32.210Z,95649.47
2024-01-17T12:43:59.072Z,95639.47
2024-01-17T12:46:27.042Z,95578.06
2024-01-17T12:48:58.139Z,95618.00
2024-01-17T12:51:27.467Z,95632.81
2024-01-17T12:53:55.683Z,95613.13
2024-01-17T12:56:26.144Z,95617.59
2024-01-17T12:58:54.024Z,95602.03
2024-01-17T13:01:27.084Z,95609.16
2024-01-17T13:04:04.795Z,95600.25
2024-01-17T13:06:32.839Z,95585.03
2024-01-17T13:09:15.143Z,95594.13
2024-01-17T13:11:42.254Z,95600.06
2024-01-17T13:14:09.773Z,95564.69
2024-01-17T13:16:36.663Z,95576.16
2024-01-17T13:19:09.198Z,95548.97
2024-01-17T13:21:37.504Z,95570.63
2024-01-17T13:24:05.535Z,95525.84
2024-01-17T13:26:34.841Z,95559.47
2024-01-17T13:29:01.666Z,95550.78
2024-01-17T13:31:28.467Z,95562.22
2024-01-17T13:33:56.462Z,95552.91
2024-01-17T13:36:24.723Z,95553.22
2024-01-17T13:38:53.578Z,95556.22
2024-01-17T13:41:27.049Z,95550.88
2024-01-17T13:43:57.354Z,95502.22
2024-01-17T13:46:25.689Z,95541.16
2024-01-17T13:48:54.793Z,95534.84
2024-01-17T13:51:26.052Z,95528.69
2024-01-17T13:53:57.493Z,95528.88
2024-01-17T13:56:25.343Z,95536.28
2024-01-17T13:58:52.164Z,95494.13
2024-01-17T14:01:20.731Z,95522.03
2024-01-17T14:03:49.200Z,95526.91
2024-01-17T14:06:16.438Z,95514.84
2024-01-17T14:08:44.541Z,95507.59
2024-01-17T14:11:14.863Z,95507.41
2024-01-17T14:13:43.918Z,95502.47
2024-01-17T14:16:14.284Z,95505.31
2024-01-17T14:18:42.580Z,95499.97
2024-01-17T14:21:10.186Z,95466.50
2024-01-17T14:23:37.183Z,95490.38
2024-01-17T14:26:05.393Z,95485.81
2024-01-17T14:28:33.703Z,95484.06
2024-01-17T14:31:02.141Z,95444.75
2024-01-17T14:33:30.096Z,95479.78
2024-01-17T14:35:58.269Z,95477.63
2024-01-17T14:38:26.309Z,95467.75
2024-01-17T14:40:53.049Z,95465.94
2024-01-17T14:43:21.176Z,95452.50
2024-01-17T14:45:49.207Z,95451.88
2024-01-17T14:48:17.845Z,95439.72
2024-01-17T14:50:44.693Z,95435.47
2024-01-17T14:53:13.551Z,95432.22
2024-01-17T14:55:41.752Z,95429.03
2024-01-17T14:58:09.008Z,95417.69
2024-01-17T15:00:36.853Z,95422.44
2024-01-17T15:03:03.799Z,95412.06
2024-01-17T15:05:31.200Z,95409.84
2024-01-17T15:07:58.605Z,95372.97
2024-01-17T15:10:28.381Z,95394.41
2024-01-17T15:12:56.470Z,95402.75
2024-01-17T15:15:24.660Z,95398.22
2024-01-17T15:17:53.795Z,95395.72
2024-01-17T15:20:24.760Z,95396.50
2024-01-17T15:22:52.510Z,95390.81
2024-01-17T15:25:20.407Z,95402.47
2024-01-17T15:27:48.196Z,95400.28
2024-01-17T15:30:16.901Z,95393.56
2024-01-17T15:32:46.057Z,95386.31
2024-01-17T15:35:14.262Z,95384.72
2024-01-17T15:37:42.563Z,95343.78
2024-01-17T15:40:12.081Z,95371.75
2024-01-17T15:42:42.580Z,95368.75
2024-01-17T15:45:11.613Z,95360.75
2024-01-17T15:47:40.444Z,95343.91
2024-01-17T15:50:09.335Z,95346.56
2024-01-17T15:52:37.146Z,95345.91
2024-01-17T15:55:04.315Z,95326.13
2024-01-17T15:57:31.113Z,95334.25
2024-01-17T15:59:59.152Z,95335.72
2024-01-17T16:02:27.162Z,95325.03
2024-01-17T16:04:53.879Z,95326.28
2024-01-17T16:07:20.771Z,95314.19
2024-01-17T16:09:50.168Z,95315.28
2024-01-17T16:12:18.254Z,95312.81
2024-01-17T16:14:45.156Z,95316.44
2024-01-17T16:17:12.107Z,95303.28
2024-01-17T16:19:40.080Z,95296.00
2024-01-17T16:22:08.276Z,95298.22
2024-01-17T16:24:36.169Z,95294.94
2024-01-17T16:27:04.185Z,95289.66
2024-01-17T16:29:32.842Z,95299.59
2024-01-17T16:31:59.597Z,95290.47
2024-01-17T16:34:27.610Z,95243.06
2024-01-17T16:36:54.361Z,95283.38
2024-01-17T16:39:22.295Z,95279.44
2024-01-17T16:41:50.338Z,95276.66
2024-01-17T16:44:18.771Z,95281.19
2024-01-17T16:46:46.615Z,95281.19
2024-01-17T16:49:16.438Z,95281.66
2024-01-17T16:51:43.759Z,95294.88
2024-01-17T16:54:10.666Z,95290.28
2024-01-17T16:56:38.453Z,95284.78
2024-01-17T16:59:05.179Z,95279.13
2024-01-17T17:01:31.967Z,95273.94
2024-01-17T17:04:00.197Z,95275.69
2024-01-17T17:06:26.998Z,95245.56
2024-01-17T17:08:55.234Z,95274.88
2024-01-17T17:11:23.315Z,95283.56
2024-01-17T17:13:50.571Z,95277.28
2024-01-17T17:16:19.597Z,95272.72
2024-01-17T17:18:46.644Z,95259.84
2024-01-17T17:21:15.039Z,95266.94
2024-01-17T17:23:46.159Z,95253.88
2024-01-17T17:26:14.181Z,95248.81
2024-01-17T17:28:41.335Z,95240.19
2024-01-17T17:31:09.245Z,95208.56
2024-01-17T17:33:37.548Z,95231.41
2024-01-17T17:36:06.330Z,95220.09
2024-01-17T17:38:34.258Z,95210.19
2024-01-17T17:41:02.169Z,95218.38
2024-01-17T17:43:30.217Z,95205.19
2024-01-17T17:45:58.634Z,95209.13
2024-01-17T17:48:27.764Z,95204.56
2024-01-17T17:50:56.528Z,95186.91
2024-01-17T17:53:24.683Z,95188.06
2024-01-17T17:55:52.760Z,95144.00
2024-01-17T18:01:01.573Z,95164.94
2024-01-17T18:03:30.012Z,95155.97
2024-01-17T18:05:57.073Z,95145.44
2024-01-17T18:08:25.228Z,95129.56
2024-01-17T18:10:53.673Z,95124.53
2024-01-17T18:13:20.559Z,95126.88
2024-01-17T18:15:48.807Z,95129.41
2024-01-17T18:18:18.345Z,95118.09
2024-01-17T18:20:45.541Z,95127.50
2024-01-17T18:23:15.069Z,95098.28
2024-01-17T18:25:44.667Z,95113.66
2024-01-17T18:28:14.292Z,95087.72
2024-01-17T18:30:41.631Z,95102.03
2024-01-17T18:33:09.384Z,95099.81
2024-01-17T18:35:38.235Z,95097.31
2024-01-17T18:38:06.304Z,95103.75
2024-01-17T18:40:34.611Z,95089.91
2024-01-17T18:43:01.405Z,95085.06
2024-01-17T18:45:28.696Z,95099.19
2024-01-17T18:47:55.635Z,95099.03
2024-01-17T18:50:24.725Z,95101.38
2024-01-17T18:52:52.657Z,95090.25
2024-01-17T18:55:20.539Z,95085.81
2024-01-17T18:57:48.569Z,95080.47
2024-01-17T19:00:15.732Z,95035.03
2024-01-17T19:02:42.672Z,95052.34
2024-01-17T19:05:10.740Z,95053.09
2024-01-17T19:07:39.051Z,95061.13
2024-01-17T19:10:07.401Z,95060.34
2024-01-17T19:12:35.502Z,95052.16
2024-01-17T19:15:02.362Z,95040.22
2024-01-17T19:17:30.795Z,95021.50
2024-01-17T19:19:59.706Z,95023.56
2024-01-17T19:22:30.143Z,95032.50
2024-01-17T19:24:58.267Z,95023.84
2024-01-17T19:27:29.071Z,95028.56
2024-01-17T19:29:57.126Z,95016.59
2024-01-17T19:32:23.959Z,95012.50
2024-01-17T19:34:51.879Z,95010.75
2024-01-17T19:37:19.934Z,95001.94
2024-01-17T19:39:48.079Z,94990.47
2024-01-17T19:42:16.191Z,94986.06
2024-01-17T19:44:44.154Z,94977.53
2024-01-17T19:47:12.517Z,94977.34
2024-01-17T19:49:40.551Z,94953.13
2024-01-17T19:52:11.981Z,94937.09
2024-01-17T19:54:39.180Z,94965.81
2024-01-17T19:57:07.249Z,94970.84
2024-01-17T19:59:33.986Z,94942.13
2024-01-17T20:02:01.957Z,94960.47
2024-01-17T20:04:30.199Z,94941.59
2024-01-17T20:06:58.007Z,94938.44
2024-01-17T20:09:26.184Z,94940.47
2024-01-17T20:11:53.066Z,94900.84
2024-01-17T20:14:19.865Z,94925.78
2024-01-17T20:16:48.793Z,94910.50
2024-01-17T20:19:21.744Z,94912.69
2024-01-17T20:21:51.900Z,94898.97
2024-01-17T20:24:20.002Z,94876.72
2024-01-17T20:26:46.784Z,94889.47
2024-01-17T20:29:14.826Z,94909.59
2024-01-17T20:31:42.689Z,94893.34
2024-01-17T20:34:10.667Z,94814.84
2024-01-17T20:36:38.723Z,94873.56
2024-01-17T20:39:05.511Z,94873.25
2024-01-17T20:41:34.644Z,94855.41
2024-01-17T20:44:01.373Z,94835.09
2024-01-17T20:46:29.478Z,94853.25
2024-01-17T20:48:57.585Z,94862.47
2024-01-17T20:51:27.211Z,94858.94
2024-01-17T20:53:54.402Z,94863.00
2024-01-17T20:56:25.373Z,94862.28
2024-01-17T20:58:54.906Z,94854.19
2024-01-17T21:01:30.569Z,94848.88
2024-01-17T21:03:57.345Z,94858.41
2024-01-17T21:06:24.104Z,94846.22
2024-01-17T21:08:52.609Z,94849.84
2024-01-17T21:11:20.701Z,94811.84
2024-01-17T21:13:48.935Z,94807.53
2024-01-17T21:16:17.025Z,94805.63
2024-01-17T21:18:44.907Z,94802.59
2024-01-17T21:21:12.186Z,94789.94
2024-01-17T21:23:40.263Z,94757.72
2024-01-17T21:26:07.966Z,94793.69
2024-01-17T21:28:34.800Z,94797.16
2024-01-17T21:31:03.734Z,94807.47
2024-01-17T21:33:30.719Z,94793.19
2024-01-17T21:36:01.347Z,94790.88
2024-01-17T21:38:29.304Z,94766.44
2024-01-17T21:40:57.357Z,94773.72
2024-01-17T21:43:25.639Z,94772.41
2024-01-17T21:45:54.423Z,94767.50
2024-01-17T21:48:22.502Z,94757.44
2024-01-17T21:50:50.391Z,94720.69
2024-01-17T21:53:17.265Z,94742.47
2024-01-17T21:55:45.337Z,94743.59
2024-01-17T21:58:12.446Z,94726.75
2024-01-17T22:00:40.546Z,94722.59
2024-01-17T22:03:07.815Z,94725.06
2024-01-17T22:05:36.069Z,94729.97
2024-01-17T22:08:04.329Z,94716.00
2024-01-17T22:10:32.368Z,94707.84
2024-01-17T22:13:00.643Z,94709.75
2024-01-17T22:15:28.973Z,94697.56
2024-01-17T22:17:57.277Z,94702.91
2024-01-17T22:20:24.034Z,94703.03
2024-01-17T22:22:52.814Z,94696.44
2024-01-17T22:25:19.582Z,94685.38
2024-01-17T22:27:47.297Z,94679.91
2024-01-17T22:30:15.367Z,94687.41
2024-01-17T22:32:42.210Z,94674.75
2024-01-17T22:35:12.636Z,94677.66
2024-01-17T22:37:39.521Z,94654.97
2024-01-17T22:40:11.039Z,94668.34
2024-01-17T22:42:39.939Z,94669.22
2024-01-17T22:45:10.045Z,94661.06
2024-01-17T22:47:38.208Z,94673.47
2024-01-17T22:50:05.822Z,94660.97
2024-01-17T22:52:32.622Z,94652.38
2024-01-17T22:54:59.314Z,94674.34
2024-01-17T22:57:27.648Z,94667.19
2024-01-17T22:59:54.584Z,94668.16
2024-01-17T23:02:22.644Z,94658.31
2024-01-17T23:04:49.316Z,94646.53
2024-01-17T23:07:17.204Z,94662.94
2024-01-17T23:09:43.933Z,94659.22
2024-01-17T23:12:11.656Z,94658.53
2024-01-17T23:14:38.427Z,94648.09
2024-01-17T23:17:06.399Z,94626.25
2024-01-17T23:19:33.449Z,94637.88
2024-01-17T23:22:01.725Z,94635.34
2024-01-17T23:24:29.822Z,94606.66
2024-01-17T23:26:58.198Z,94623.75
2024-01-17T23:29:24.962Z,94628.50
2024-01-17T23:31:52.231Z,94626.91
2024-01-17T23:34:19.192Z,94627.22
2024-01-17T23:36:45.962Z,94615.41
2024-01-17T23:39:14.058Z,94610.88
2024-01-17T23:41:41.996Z,94611.25
2024-01-17T23:44:10.335Z,94597.25
2024-01-17T23:46:38.325Z,94586.09
2024-01-17T23:49:05.162Z,94587.84
2024-01-17T23:51:32.047Z,94584.44
2024-01-17T23:54:02.536Z,94584.03
2024-01-17T23:56:39.790Z,94575.06
2024-01-17T23:59:08.200Z,94580.78
